createdAt,value
2018-07-19T00:01:03.089Z,3.87
2018-07-19T00:03:31.153Z,3.03
2018-07-19T00:05:59.204Z,3.03
2018-07-19T00:08:27.295Z,3.60
2018-07-19T00:10:55.363Z,3.33
2018-07-19T00:13:23.531Z,3.83
2018-07-19T00:15:51.924Z,3.50
2018-07-19T00:18:24.456Z,3.40
2018-07-19T00:20:52.989Z,3.10
2018-07-19T00:23:21.247Z,3.17
2018-07-19T00:25:49.320Z,4.50
2018-07-19T00:28:17.392Z,4.33
2018-07-19T00:30:45.359Z,4.13
2018-07-19T00:33:13.343Z,3.97
2018-07-19T00:35:41.400Z,4.00
2018-07-19T00:38:09.368Z,4.87
2018-07-19T00:40:37.529Z,4.17
2018-07-19T00:43:05.484Z,4.47
2018-07-19T00:45:33.484Z,5.03
2018-07-19T00:48:01.668Z,3.33
2018-07-19T00:50:29.940Z,3.83
2018-07-19T00:52:57.928Z,4.30
2018-07-19T00:55:25.863Z,3.47
2018-07-19T00:57:54.040Z,3.53
2018-07-19T01:00:22.109Z,3.87
2018-07-19T01:02:50.185Z,3.77
2018-07-19T01:05:18.151Z,3.07
2018-07-19T01:07:46.324Z,4.03
2018-07-19T01:10:14.397Z,3.70
2018-07-19T01:12:42.488Z,3.47
2018-07-19T01:15:10.531Z,4.00
2018-07-19T01:17:38.503Z,3.80
2018-07-19T01:20:06.580Z,3.70
2018-07-19T01:22:34.627Z,3.63
2018-07-19T01:25:02.849Z,4.03
2018-07-19T01:27:30.971Z,3.50
2018-07-19T01:29:58.940Z,3.50
2018-07-19T01:32:26.900Z,4.30
2018-07-19T01:34:55.103Z,4.13
2018-07-19T01:37:23.176Z,4.37
2018-07-19T01:39:51.128Z,4.47
2018-07-19T01:42:34.395Z,5.27
2018-07-19T01:45:02.559Z,4.27
2018-07-19T01:47:30.593Z,4.43
2018-07-19T01:49:58.695Z,4.47
2018-07-19T01:52:26.658Z,4.40
2018-07-19T01:54:54.738Z,4.63
2018-07-19T01:57:22.812Z,4.57
2018-07-19T01:59:51.131Z,4.57
2018-07-19T02:02:19.764Z,4.77
2018-07-19T02:04:47.709Z,4.10
2018-07-19T02:07:15.926Z,5.13
2018-07-19T02:09:44.164Z,4.23
2018-07-19T02:12:12.148Z,5.30
2018-07-19T02:14:40.533Z,3.73
2018-07-19T02:17:08.481Z,4.00
2018-07-19T02:19:36.476Z,4.97
2018-07-19T02:22:04.718Z,3.90
2018-07-19T02:24:32.829Z,3.80
2018-07-19T02:27:01.046Z,4.20
2018-07-19T02:29:29.160Z,3.90
2018-07-19T02:31:57.244Z,3.50
2018-07-19T02:34:25.410Z,4.00
2018-07-19T02:36:53.484Z,4.43
2018-07-19T02:39:21.476Z,3.77
2018-07-19T02:41:49.626Z,4.13
2018-07-19T02:44:17.692Z,3.70
2018-07-19T02:46:45.872Z,4.40
2018-07-19T02:49:14.056Z,4.23
2018-07-19T02:51:43.136Z,3.73
2018-07-19T02:54:11.620Z,4.10
2018-07-19T02:56:39.768Z,4.43
2018-07-19T02:59:07.764Z,4.00
2018-07-19T03:01:36.140Z,4.00
2018-07-19T03:04:04.326Z,4.60
2018-07-19T03:06:32.406Z,3.93
2018-07-19T03:09:00.578Z,4.30
2018-07-19T03:11:28.723Z,4.27
2018-07-19T03:13:56.677Z,4.40
2018-07-19T03:16:24.778Z,4.33
2018-07-19T03:18:52.844Z,4.30
2018-07-19T03:21:20.912Z,4.53
2018-07-19T03:23:48.988Z,3.83
2018-07-19T03:26:17.032Z,4.40
2018-07-19T03:28:45.024Z,5.10
2018-07-19T03:31:13.025Z,5.17
2018-07-19T03:33:41.300Z,4.10
2018-07-19T03:36:09.437Z,3.60
2018-07-19T03:38:37.426Z,4.23
2018-07-19T03:41:05.835Z,4.47
2018-07-19T03:43:34.016Z,4.87
2018-07-19T03:46:02.132Z,4.90
2018-07-19T03:48:30.111Z,4.57
2018-07-19T03:50:58.178Z,4.10
2018-07-19T03:53:26.146Z,4.40
2018-07-19T03:55:57.045Z,4.57
2018-07-19T03:58:25.048Z,4.10
2018-07-19T04:00:53.043Z,3.80
2018-07-19T04:03:21.188Z,4.60
2018-07-19T04:05:49.162Z,3.67
2018-07-19T04:08:17.128Z,4.13
2018-07-19T04:10:45.097Z,4.03
2018-07-19T04:13:13.248Z,4.20
2018-07-19T04:15:41.249Z,5.03
2018-07-19T04:18:09.514Z,4.50
2018-07-19T04:20:37.585Z,4.17
2018-07-19T04:23:05.764Z,4.37
2018-07-19T04:25:34.060Z,4.23
2018-07-19T04:28:02.110Z,4.77
2018-07-19T04:30:30.256Z,4.47
2018-07-19T04:32:58.256Z,3.70
2018-07-19T04:35:26.432Z,3.77
2018-07-19T04:37:54.600Z,4.20
2018-07-19T04:40:22.545Z,3.70
2018-07-19T04:42:50.892Z,3.93
2018-07-19T04:45:19.008Z,4.13
2018-07-19T04:47:47.109Z,4.30
2018-07-19T04:50:15.159Z,4.33
2018-07-19T04:52:43.131Z,4.00
2018-07-19T04:55:11.277Z,4.60
2018-07-19T04:57:39.372Z,4.07
2018-07-19T05:00:07.643Z,5.43
2018-07-19T05:02:35.588Z,4.57
2018-07-19T05:05:04.103Z,4.97
2018-07-19T05:07:32.164Z,5.43
2018-07-19T05:10:00.136Z,5.57
2018-07-19T05:12:28.204Z,5.03
2018-07-19T05:14:56.169Z,4.73
2018-07-19T05:17:24.348Z,5.07
2018-07-19T05:19:52.428Z,5.10
2018-07-19T05:22:20.387Z,5.10
2018-07-19T05:24:48.563Z,5.27
2018-07-19T05:27:16.484Z,6.07
2018-07-19T05:29:44.499Z,5.17
2018-07-19T05:32:12.876Z,5.57
2018-07-19T05:34:41.022Z,5.00
2018-07-19T05:37:08.966Z,4.20
2018-07-19T05:39:36.887Z,3.13
2018-07-19T05:42:04.966Z,3.60
2018-07-19T05:44:33.056Z,3.33
2018-07-19T05:47:01.108Z,3.80
2018-07-19T05:49:29.048Z,3.27
2018-07-19T05:51:57.025Z,2.87
2018-07-19T05:54:25.007Z,3.43
2018-07-19T05:56:52.984Z,3.23
2018-07-19T05:59:20.951Z,3.33
2018-07-19T06:01:49.015Z,3.03
2018-07-19T06:04:16.991Z,3.70
2018-07-19T06:06:45.068Z,3.87
2018-07-19T06:09:13.176Z,3.30
2018-07-19T06:11:41.184Z,3.00
2018-07-19T06:14:09.172Z,3.27
2018-07-19T06:16:37.063Z,3.40
2018-07-19T06:19:05.412Z,3.30
2018-07-19T06:21:33.401Z,3.17
2018-07-19T06:24:01.569Z,3.50
2018-07-19T06:26:29.624Z,3.30
2018-07-19T06:28:57.572Z,3.10
2018-07-19T06:31:25.674Z,3.03
2018-07-19T06:33:53.736Z,3.67
2018-07-19T06:36:21.720Z,3.50
2018-07-19T06:38:49.672Z,3.57
2018-07-19T06:41:17.735Z,3.90
2018-07-19T06:43:45.616Z,3.53
2018-07-19T06:46:13.687Z,3.40
2018-07-19T06:48:41.768Z,3.53
2018-07-19T06:51:10.031Z,3.80
2018-07-19T06:53:38.125Z,3.60
2018-07-19T06:56:06.067Z,3.63
2018-07-19T06:58:34.096Z,3.40
2018-07-19T07:01:02.104Z,3.70
2018-07-19T07:03:30.231Z,3.27
2018-07-19T07:05:58.740Z,3.23
2018-07-19T07:08:26.691Z,3.20
2018-07-19T07:10:54.801Z,3.60
2018-07-19T07:13:22.876Z,4.47
2018-07-19T07:15:50.948Z,3.10
2018-07-19T07:18:18.987Z,2.77
2018-07-19T07:20:48.032Z,2.83
2018-07-19T07:23:16.308Z,3.07
2018-07-19T07:25:49.601Z,3.00
2018-07-19T07:28:18.532Z,2.90
2018-07-19T07:30:46.540Z,3.07
2018-07-19T07:33:15.229Z,3.43
2018-07-19T07:35:43.603Z,3.30
2018-07-19T07:38:11.575Z,2.97
2018-07-19T07:40:39.652Z,2.67
2018-07-19T07:43:08.336Z,2.87
2018-07-19T07:45:36.308Z,3.23
2018-07-19T07:48:04.448Z,3.20
2018-07-19T07:50:32.856Z,3.20
2018-07-19T07:53:00.795Z,2.83
2018-07-19T07:55:28.789Z,3.27
2018-07-19T07:57:56.836Z,2.90
2018-07-19T08:00:24.962Z,3.20
2018-07-19T08:02:53.125Z,3.20
2018-07-19T08:05:21.587Z,2.93
2018-07-19T08:07:49.655Z,3.13
2018-07-19T08:10:17.736Z,3.20
2018-07-19T08:12:45.708Z,2.90
2018-07-19T08:15:13.669Z,3.10
2018-07-19T08:17:41.843Z,3.33
2018-07-19T08:20:09.808Z,3.10
2018-07-19T08:22:37.775Z,2.70
2018-07-19T08:25:05.639Z,3.20
2018-07-19T08:27:33.713Z,3.20
2018-07-19T08:30:01.696Z,3.27
2018-07-19T08:32:29.965Z,3.37
2018-07-19T08:34:57.931Z,3.27
2018-07-19T08:37:25.896Z,2.83
2018-07-19T08:39:53.863Z,2.97
2018-07-19T08:42:21.831Z,2.90
2018-07-19T08:44:49.907Z,3.63
2018-07-19T08:47:17.880Z,3.50
2018-07-19T08:49:46.904Z,3.77
2018-07-19T08:52:15.263Z,3.00
2018-07-19T08:54:43.527Z,2.93
2018-07-19T08:57:11.595Z,3.73
2018-07-19T08:59:39.701Z,3.17
2018-07-19T09:02:07.821Z,3.50
2018-07-19T09:04:35.812Z,3.77
2018-07-19T09:07:04.099Z,3.50
2018-07-19T09:09:32.180Z,3.23
2018-07-19T09:12:00.219Z,2.77
2018-07-19T09:14:28.174Z,3.20
2018-07-19T09:16:56.376Z,2.83
2018-07-19T09:19:24.310Z,2.87
2018-07-19T09:21:52.404Z,2.33
2018-07-19T09:24:20.363Z,2.63
2018-07-19T09:26:48.453Z,2.60
2018-07-19T09:29:16.416Z,2.77
2018-07-19T09:31:44.497Z,2.53
2018-07-19T09:34:12.560Z,3.07
2018-07-19T09:36:40.496Z,2.87
2018-07-19T09:39:10.742Z,2.30
2018-07-19T09:41:38.845Z,2.77
2018-07-19T09:44:07.025Z,2.30
2018-07-19T09:46:34.945Z,2.23
2018-07-19T09:49:03.138Z,2.50
2018-07-19T09:51:31.052Z,2.93
2018-07-19T09:53:59.507Z,2.80
2018-07-19T09:56:27.764Z,2.80
2018-07-19T09:58:55.832Z,3.27
2018-07-19T10:01:23.808Z,2.73
2018-07-19T10:03:52.190Z,2.50
2018-07-19T10:06:20.676Z,2.37
2018-07-19T10:08:48.627Z,2.40
2018-07-19T10:11:16.593Z,2.73
2018-07-19T10:13:45.046Z,2.80
2018-07-19T10:16:12.917Z,2.87
2018-07-19T10:18:40.912Z,2.63
2018-07-19T10:21:08.876Z,2.33
2018-07-19T10:23:36.880Z,2.60
2018-07-19T10:26:05.020Z,2.73
2018-07-19T10:28:33.121Z,2.70
2018-07-19T10:31:01.160Z,2.57
2018-07-19T10:33:29.127Z,2.60
2018-07-19T10:35:57.072Z,3.07
2018-07-19T10:38:25.104Z,2.20
2018-07-19T10:40:53.116Z,2.67
2018-07-19T10:43:21.209Z,2.43
2018-07-19T10:45:49.256Z,2.10
2018-07-19T10:48:17.252Z,2.50
2018-07-19T10:50:45.320Z,2.27
2018-07-19T10:53:13.289Z,2.57
2018-07-19T10:55:41.260Z,2.63
2018-07-19T10:58:09.223Z,2.67
2018-07-19T11:00:37.192Z,2.90
2018-07-19T11:03:05.585Z,2.40
2018-07-19T11:05:33.520Z,2.80
2018-07-19T11:08:01.632Z,2.73
2018-07-19T11:10:29.788Z,2.30
2018-07-19T11:12:57.757Z,2.20
2018-07-19T11:15:25.732Z,2.60
2018-07-19T11:17:53.804Z,2.47
2018-07-19T11:20:21.976Z,2.40
2018-07-19T11:22:49.952Z,2.60
2018-07-19T11:25:17.884Z,2.30
2018-07-19T11:27:45.876Z,2.40
2018-07-19T11:30:13.930Z,2.43
2018-07-19T11:32:41.925Z,2.30
2018-07-19T11:35:09.890Z,2.60
2018-07-19T11:37:37.933Z,2.37
2018-07-19T11:40:05.930Z,2.67
2018-07-19T11:42:33.893Z,2.20
2018-07-19T11:45:01.866Z,2.80
2018-07-19T11:47:29.936Z,2.00
2018-07-19T11:49:57.950Z,2.13
2018-07-19T11:52:25.877Z,2.63
2018-07-19T11:54:54.065Z,2.83
2018-07-19T11:57:22.236Z,2.50
2018-07-19T11:59:50.194Z,3.03
2018-07-19T12:02:18.264Z,2.63
2018-07-19T12:04:46.235Z,2.40
2018-07-19T12:07:14.201Z,2.37
2018-07-19T12:09:42.175Z,2.60
2018-07-19T12:12:10.320Z,2.30
2018-07-19T12:14:38.393Z,2.93
2018-07-19T12:17:06.384Z,3.00
2018-07-19T12:19:34.432Z,2.50
2018-07-19T12:22:02.501Z,2.57
2018-07-19T12:24:30.796Z,2.30
2018-07-19T12:26:58.749Z,2.73
2018-07-19T12:29:26.741Z,2.73
2018-07-19T12:31:54.755Z,2.53
2018-07-19T12:34:22.773Z,2.23
2018-07-19T12:36:50.780Z,2.33
2018-07-19T12:39:18.816Z,2.60
2018-07-19T12:41:47.121Z,2.63
2018-07-19T12:44:15.167Z,2.57
2018-07-19T12:46:43.136Z,2.57
2018-07-19T12:49:11.109Z,2.67
2018-07-19T12:51:39.076Z,2.60
2018-07-19T12:54:07.248Z,3.10
2018-07-19T12:56:35.213Z,3.03
2018-07-19T12:59:03.292Z,2.57
2018-07-19T13:01:31.478Z,3.33
2018-07-19T13:03:59.540Z,2.60
2018-07-19T13:06:27.496Z,2.80
2018-07-19T13:08:55.476Z,2.37
2018-07-19T13:11:23.408Z,2.70
2018-07-19T13:13:51.513Z,2.50
2018-07-19T13:16:19.480Z,2.60
2018-07-19T13:18:47.429Z,2.40
2018-07-19T13:21:15.616Z,2.90
2018-07-19T13:23:43.596Z,2.13
2018-07-19T13:26:11.553Z,2.60
2018-07-19T13:28:39.632Z,2.50
2018-07-19T13:31:07.677Z,2.27
2018-07-19T13:33:35.681Z,2.07
2018-07-19T13:36:03.642Z,2.50
2018-07-19T13:38:31.684Z,2.67
2018-07-19T13:40:59.668Z,2.53
2018-07-19T13:43:27.641Z,2.67
2018-07-19T13:45:55.612Z,2.77
2018-07-19T13:48:23.688Z,2.70
2018-07-19T13:50:51.651Z,2.40
2018-07-19T13:53:32.872Z,2.80
2018-07-19T13:56:01.011Z,2.90
2018-07-19T13:58:28.973Z,2.97
2018-07-19T14:00:56.976Z,2.70
2018-07-19T14:03:25.120Z,2.60
2018-07-19T14:05:53.085Z,2.23
2018-07-19T14:08:21.159Z,2.60
2018-07-19T14:10:49.125Z,2.83
2018-07-19T14:13:17.353Z,2.70
2018-07-19T14:15:45.468Z,2.80
2018-07-19T14:18:13.848Z,2.63
2018-07-19T14:20:41.928Z,2.60
2018-07-19T14:23:09.889Z,2.63
2018-07-19T14:25:38.121Z,2.80
2018-07-19T14:28:06.218Z,2.80
2018-07-19T14:30:34.316Z,3.00
2018-07-19T14:33:02.281Z,2.83
2018-07-19T14:35:30.253Z,2.77
2018-07-19T14:37:58.212Z,2.63
2018-07-19T14:40:26.301Z,2.60
2018-07-19T14:42:54.325Z,2.60
2018-07-19T14:45:22.429Z,2.47
2018-07-19T14:47:50.397Z,2.50
2018-07-19T14:50:18.464Z,2.77
2018-07-19T14:52:46.436Z,2.63
2018-07-19T14:55:14.408Z,2.60
2018-07-19T14:57:42.372Z,2.67
2018-07-19T15:00:10.532Z,2.90
2018-07-19T15:02:38.525Z,2.50
2018-07-19T15:05:06.588Z,3.03
2018-07-19T15:07:34.664Z,2.40
2018-07-19T15:10:02.726Z,2.40
2018-07-19T15:12:30.677Z,2.67
2018-07-19T15:14:58.753Z,2.37
2018-07-19T15:17:26.744Z,3.00
2018-07-19T15:19:54.704Z,2.70
2018-07-19T15:22:22.897Z,2.87
2018-07-19T15:24:50.976Z,2.90
2018-07-19T15:27:19.023Z,3.10
2018-07-19T15:29:47.085Z,2.70
2018-07-19T15:32:15.065Z,2.73
2018-07-19T15:34:43.028Z,2.73
2018-07-19T15:37:11.096Z,2.90
2018-07-19T15:39:39.095Z,2.57
2018-07-19T15:42:07.353Z,2.67
2018-07-19T15:44:35.416Z,2.60
2018-07-19T15:47:03.394Z,2.57
2018-07-19T15:49:31.432Z,2.63
2018-07-19T15:51:59.440Z,2.53
2018-07-19T15:54:27.395Z,2.53
2018-07-19T15:56:55.468Z,3.00
2018-07-19T15:59:23.444Z,2.83
2018-07-19T16:01:51.505Z,3.00
2018-07-19T16:04:19.578Z,2.77
2018-07-19T16:06:47.557Z,2.80
2018-07-19T16:09:15.524Z,2.73
2018-07-19T16:11:43.465Z,3.00
2018-07-19T16:14:11.460Z,2.40
2018-07-19T16:16:39.532Z,2.63
2018-07-19T16:19:07.484Z,2.77
2018-07-19T16:21:35.459Z,2.97
2018-07-19T16:24:03.509Z,2.50
2018-07-19T16:26:31.604Z,2.63
2018-07-19T16:28:59.572Z,2.60
2018-07-19T16:31:28.694Z,3.00
2018-07-19T16:33:57.152Z,2.90
2018-07-19T16:36:25.397Z,2.57
2018-07-19T16:38:53.596Z,2.77
2018-07-19T16:41:21.762Z,2.83
2018-07-19T16:43:49.952Z,3.03
2018-07-19T16:46:18.178Z,2.80
2018-07-19T16:48:46.295Z,2.57
2018-07-19T16:51:14.456Z,2.80
2018-07-19T16:53:42.461Z,2.47
2018-07-19T16:56:10.490Z,2.60
2018-07-19T16:58:38.646Z,2.53
2018-07-19T17:01:06.878Z,2.70
2018-07-19T17:03:35.046Z,2.37
2018-07-19T17:06:03.408Z,3.07
2018-07-19T17:08:31.514Z,2.80
2018-07-19T17:10:59.544Z,2.67
2018-07-19T17:13:27.536Z,2.83
2018-07-19T17:15:55.572Z,2.63
2018-07-19T17:18:23.561Z,2.90
2018-07-19T17:20:51.529Z,2.60
2018-07-19T17:23:19.655Z,2.70
2018-07-19T17:25:48.009Z,2.70
2018-07-19T17:28:16.239Z,2.67
2018-07-19T17:30:45.261Z,3.13
2018-07-19T17:33:13.536Z,2.70
2018-07-19T17:35:44.311Z,2.53
2018-07-19T17:38:12.724Z,2.83
2018-07-19T17:40:40.704Z,2.97
2018-07-19T17:43:08.777Z,2.70
2018-07-19T17:45:36.855Z,2.83
2018-07-19T17:48:05.021Z,2.67
2018-07-19T17:50:33.073Z,3.20
2018-07-19T17:53:01.060Z,2.63
2018-07-19T17:55:29.106Z,2.87
2018-07-19T17:57:57.300Z,2.60
2018-07-19T18:00:25.252Z,3.10
2018-07-19T18:02:53.254Z,2.60
2018-07-19T18:05:21.316Z,3.00
2018-07-19T18:07:49.292Z,3.00
2018-07-19T18:10:17.252Z,2.90
2018-07-19T18:12:45.429Z,3.03
2018-07-19T18:15:13.401Z,3.57
2018-07-19T18:17:41.382Z,3.60
2018-07-19T18:20:09.521Z,4.43
2018-07-19T18:22:37.608Z,4.27
2018-07-19T18:25:06.373Z,4.63
2018-07-19T18:27:34.569Z,4.30
2018-07-19T18:30:02.856Z,5.00
2018-07-19T18:32:30.813Z,5.37
2018-07-19T18:34:58.813Z,4.83
2018-07-19T18:37:26.853Z,3.67
2018-07-19T18:39:54.827Z,2.90
2018-07-19T18:42:22.788Z,3.03
2018-07-19T18:44:50.756Z,2.90
2018-07-19T18:47:18.829Z,2.83
2018-07-19T18:49:46.907Z,2.90
2018-07-19T18:52:14.995Z,3.43
2018-07-19T18:54:43.150Z,3.10
2018-07-19T18:57:11.124Z,3.43
2018-07-19T18:59:39.076Z,3.30
2018-07-19T19:02:07.236Z,3.17
2018-07-19T19:04:35.236Z,3.30
2018-07-19T19:07:03.401Z,2.93
2018-07-19T19:09:31.351Z,2.80
2018-07-19T19:11:59.440Z,3.13
2018-07-19T19:14:27.412Z,3.03
2018-07-19T19:16:55.780Z,3.30
2018-07-19T19:19:23.885Z,2.67
2018-07-19T19:21:52.225Z,2.77
2018-07-19T19:24:20.343Z,2.70
2018-07-19T19:26:48.291Z,2.63
2018-07-19T19:29:16.261Z,2.87
2018-07-19T19:31:44.326Z,3.30
2018-07-19T19:34:12.304Z,2.93
2018-07-19T19:36:40.477Z,2.57
2018-07-19T19:39:10.896Z,3.07
2018-07-19T19:41:38.972Z,2.77
2018-07-19T19:44:06.965Z,3.00
2018-07-19T19:46:35.120Z,2.70
2018-07-19T19:49:03.292Z,2.57
2018-07-19T19:51:31.369Z,2.73
2018-07-19T19:53:59.748Z,3.00
2018-07-19T19:56:27.809Z,2.97
2018-07-19T19:58:55.780Z,2.80
2018-07-19T20:01:24.178Z,3.10
2018-07-19T20:03:52.338Z,3.70
2018-07-19T20:06:20.317Z,3.10
2018-07-19T20:08:48.383Z,2.67
2018-07-19T20:11:16.565Z,3.00
2018-07-19T20:13:44.829Z,3.20
2018-07-19T20:16:12.803Z,3.73
2018-07-19T20:18:40.871Z,3.50
2018-07-19T20:21:08.921Z,3.97
2018-07-19T20:23:37.221Z,3.27
2018-07-19T20:26:05.297Z,3.43
2018-07-19T20:28:33.368Z,3.27
2018-07-19T20:31:01.444Z,3.27
2018-07-19T20:33:29.617Z,3.20
2018-07-19T20:35:57.578Z,3.63
2018-07-19T20:38:25.544Z,3.20
2018-07-19T20:40:53.828Z,3.47
2018-07-19T20:43:21.813Z,3.77
2018-07-19T20:45:49.965Z,3.40
2018-07-19T20:48:17.944Z,3.10
2018-07-19T20:50:46.117Z,3.00
2018-07-19T20:53:14.090Z,3.50
2018-07-19T20:55:42.160Z,3.60
2018-07-19T20:58:10.125Z,3.10
2018-07-19T21:00:38.414Z,3.17
2018-07-19T21:03:06.478Z,2.93
2018-07-19T21:05:34.649Z,3.63
2018-07-19T21:08:02.804Z,3.23
2018-07-19T21:10:30.862Z,3.17
2018-07-19T21:12:58.920Z,3.50
2018-07-19T21:15:26.934Z,3.33
2018-07-19T21:17:54.913Z,3.00
2018-07-19T21:20:23.068Z,3.50
2018-07-19T21:22:51.051Z,3.20
2018-07-19T21:25:19.213Z,2.97
2018-07-19T21:27:47.180Z,3.40
2018-07-19T21:30:15.161Z,3.57
2018-07-19T21:32:43.192Z,3.50
2018-07-19T21:35:11.289Z,3.70
2018-07-19T21:37:39.278Z,3.20
2018-07-19T21:40:07.456Z,3.60
2018-07-19T21:42:35.520Z,3.80
2018-07-19T21:45:04.221Z,3.40
2018-07-19T21:47:32.273Z,3.17
2018-07-19T21:50:00.242Z,3.83
2018-07-19T21:52:28.406Z,3.00
2018-07-19T21:54:56.385Z,4.00
2018-07-19T21:57:24.443Z,4.13
2018-07-19T21:59:52.624Z,3.50
2018-07-19T22:02:20.821Z,3.50
2018-07-19T22:04:48.871Z,3.80
2018-07-19T22:07:16.945Z,3.47
2018-07-19T22:09:45.110Z,4.10
2018-07-19T22:12:13.152Z,3.80
2018-07-19T22:14:41.269Z,3.43
2018-07-19T22:17:09.320Z,3.37
2018-07-19T22:19:37.384Z,3.50
2018-07-19T22:22:05.377Z,3.13
2018-07-19T22:24:33.417Z,3.37
2018-07-19T22:27:01.413Z,4.00
2018-07-19T22:29:29.458Z,4.10
2018-07-19T22:31:57.449Z,3.57
2018-07-19T22:34:25.440Z,3.83
2018-07-19T22:36:53.368Z,3.90
2018-07-19T22:39:21.352Z,4.10
2018-07-19T22:41:49.324Z,3.90
2018-07-19T22:44:17.482Z,3.53
2018-07-19T22:46:45.468Z,3.33
2018-07-19T22:49:13.421Z,3.87
2018-07-19T22:51:41.413Z,3.90
2018-07-19T22:54:09.368Z,4.00
2018-07-19T22:56:37.344Z,4.00
2018-07-19T22:59:05.415Z,3.97
2018-07-19T23:01:33.454Z,3.90
2018-07-19T23:04:01.437Z,3.30
2018-07-19T23:06:29.420Z,4.23
2018-07-19T23:08:57.359Z,3.73
2018-07-19T23:11:25.360Z,3.90
2018-07-19T23:13:53.321Z,3.80
2018-07-19T23:16:21.297Z,3.97
2018-07-19T23:18:49.268Z,3.60
2018-07-19T23:21:17.337Z,3.40
2018-07-19T23:23:45.401Z,4.23
2018-07-19T23:26:13.376Z,3.47
2018-07-19T23:28:41.433Z,3.97
2018-07-19T23:31:09.592Z,4.10
2018-07-19T23:33:37.669Z,4.27
2018-07-19T23:36:08.684Z,3.53
2018-07-19T23:38:42.256Z,3.70
2018-07-19T23:41:14.989Z,3.90
2018-07-19T23:43:45.716Z,3.53
2018-07-19T23:46:17.784Z,3.43
2018-07-19T23:48:46.140Z,4.37
2018-07-19T23:51:14.162Z,4.37
2018-07-19T23:53:42.237Z,3.97
2018-07-19T23:56:10.197Z,3.90
2018-07-19T23:58:38.169Z,3.83
